Terminal Aerodrome Forecast
Issued by NWS

Home | Current Version | Previous Version | Graphics & Text | Print | Product List | Glossary Off
Versions: 1 2 3 4 5 6 7 8 9 10 11 12 13 14 15 16 17 18 19 20 21 22 23 24 25 26 27 28 29 30 31 32 33 34 35 36 37 38 39 40 41 42 43 44 45 46 47 48 49 50

038
FTUS43 KDDC 151346 AAC
TAFGCK
TAF AMD
KGCK 151346Z 1514/1612 06008KT 5SM -FZRA BR BKN005 OVC060
     FM151700 09006KT 3SM -FZRA BR BKN005
     FM152200 09004KT P6SM OVC005=

USA.gov is the U.S. government's official web portal to all federal, state and local government web resources and services.